createdAt,value
2022-12-01T00:09:00.445Z,7.2
2022-12-01T00:23:30.911Z,7.2
2022-12-01T00:38:00.760Z,7.2
2022-12-01T00:52:32.043Z,7
2022-12-01T01:07:03.589Z,7.1
2022-12-01T01:21:35.949Z,6.8
2022-12-01T01:36:04.515Z,7
2022-12-01T01:50:35.140Z,7
2022-12-01T02:05:06.140Z,6.8
2022-12-01T02:19:37.924Z,7.1
2022-12-01T02:34:09.513Z,7
2022-12-01T02:48:38.820Z,7.1
2022-12-01T03:03:10.170Z,6.9
2022-12-01T03:17:41.087Z,6.9
2022-12-01T03:32:12.338Z,7
2022-12-01T03:46:35.774Z,6.8
2022-12-01T04:01:07.545Z,6.9
2022-12-01T04:15:38.593Z,6.6
2022-12-01T04:30:08.916Z,6.7
2022-12-01T04:44:39.963Z,6.7
2022-12-01T04:59:13.168Z,6.6
2022-12-01T05:13:42.746Z,6.4
2022-12-01T05:28:13.682Z,6.4
2022-12-01T05:42:44.325Z,6.3
2022-12-01T05:57:16.354Z,6.3
2022-12-01T06:11:52.324Z,6.2
2022-12-01T06:26:20.575Z,6.1
2022-12-01T06:40:52.038Z,6.2
2022-12-01T06:55:22.853Z,6
2022-12-01T07:09:54.697Z,6.3
2022-12-01T07:24:25.568Z,6.1
2022-12-01T07:38:56.954Z,6.4
2022-12-01T07:53:27.718Z,6.1
2022-12-01T08:07:59.881Z,6.4
2022-12-01T08:22:29.969Z,6.5
2022-12-01T08:36:59.999Z,6.2
2022-12-01T08:51:30.640Z,6.3
2022-12-01T09:06:02.224Z,6.6
2022-12-01T09:20:32.952Z,6.2
2022-12-01T09:35:04.256Z,6.5
2022-12-01T09:49:35.535Z,6.4
2022-12-01T10:04:06.264Z,6.3
2022-12-01T10:18:37.645Z,6.4
2022-12-01T10:33:09.364Z,6.2
2022-12-01T10:47:46.199Z,6.3
2022-12-01T11:02:19.509Z,6.5
2022-12-01T11:16:46.132Z,6.4
2022-12-01T11:31:17.120Z,6.2
2022-12-01T11:45:53.518Z,6.3
2022-12-01T12:00:24.492Z,6.2
2022-12-01T12:14:51.551Z,6.4
2022-12-01T12:29:21.814Z,6.2
2022-12-01T12:43:52.966Z,6.3
2022-12-01T12:58:30.243Z,6.5
2022-12-01T13:13:02.978Z,6.4
2022-12-01T13:27:26.330Z,6.5
2022-12-01T13:41:55.316Z,6.5
2022-12-01T13:56:25.999Z,6.1
2022-12-01T14:10:57.115Z,6.2
2022-12-01T14:25:28.419Z,6.3
2022-12-01T14:40:03.383Z,6.2
2022-12-01T14:54:45.022Z,6.3
2022-12-01T15:09:36.567Z,6.1
2022-12-01T15:38:26.697Z,6.1
2022-12-01T15:52:55.687Z,5.9
2022-12-01T16:22:26.819Z,5.8
2022-12-01T16:36:53.200Z,5.5
2022-12-01T16:51:29.871Z,5.5
2022-12-01T17:06:11.966Z,5.5
2022-12-01T17:20:59.148Z,5.5
2022-12-01T17:35:24.069Z,5.7
2022-12-01T17:49:53.773Z,5.5
2022-12-01T18:04:24.771Z,5.5
2022-12-01T18:18:55.173Z,5.4
2022-12-01T18:33:28.315Z,5.4
2022-12-01T18:47:58.815Z,5.3
2022-12-01T19:02:45.973Z,5.4
2022-12-01T19:17:09.154Z,4.9
2022-12-01T19:31:39.672Z,4.9
2022-12-01T19:46:11.992Z,5
2022-12-01T20:00:43.239Z,5.2
2022-12-01T20:15:13.875Z,4.9
2022-12-01T20:29:49.027Z,4.8
2022-12-01T20:44:22.025Z,4.9
2022-12-01T20:58:47.089Z,4.7
2022-12-01T21:13:16.220Z,4.6
2022-12-01T21:27:48.914Z,4.4
2022-12-01T21:42:19.956Z,4.3
2022-12-01T21:56:49.839Z,4.3
2022-12-01T22:11:26.077Z,4.3
2022-12-01T22:25:58.195Z,4.4
2022-12-01T22:40:24.544Z,4.3
2022-12-01T22:54:55.362Z,4.4
2022-12-01T23:09:26.218Z,4.3
2022-12-01T23:23:54.916Z,4.3
2022-12-01T23:38:27.241Z,4.5
2022-12-01T23:52:57.798Z,4.3
